sensor_id;sensor_type;location;lat;lon;timestamp;P1;durP1;ratioP1;P2;durP2;ratioP2
16792;SDS011;8513;42.662;23.350;2023-07-31T00:01:45;2.58;;;2.38;;
16792;SDS011;8513;42.662;23.350;2023-07-31T00:04:10;2.60;;;2.40;;
16792;SDS011;8513;42.662;23.350;2023-07-31T00:06:35;2.80;;;2.60;;
16792;SDS011;8513;42.662;23.350;2023-07-31T00:09:01;3.13;;;2.40;;
16792;SDS011;8513;42.662;23.350;2023-07-31T00:11:26;2.80;;;2.60;;
16792;SDS011;8513;42.662;23.350;2023-07-31T00:13:52;3.47;;;2.55;;
16792;SDS011;8513;42.662;23.350;2023-07-31T00:16:18;2.60;;;2.40;;
16792;SDS011;8513;42.662;23.350;2023-07-31T00:18:44;7.07;;;2.83;;
16792;SDS011;8513;42.662;23.350;2023-07-31T00:21:09;2.80;;;2.47;;
16792;SDS011;8513;42.662;23.350;2023-07-31T00:23:35;2.28;;;2.08;;
16792;SDS011;8513;42.662;23.350;2023-07-31T00:26:00;2.60;;;2.40;;
16792;SDS011;8513;42.662;23.350;2023-07-31T00:28:26;2.78;;;2.58;;
16792;SDS011;8513;42.662;23.350;2023-07-31T00:30:52;2.47;;;2.28;;
16792;SDS011;8513;42.662;23.350;2023-07-31T00:33:18;3.15;;;2.85;;
16792;SDS011;8513;42.662;23.350;2023-07-31T00:35:43;2.80;;;2.60;;
16792;SDS011;8513;42.662;23.350;2023-07-31T00:38:08;3.13;;;2.92;;
16792;SDS011;8513;42.662;23.350;2023-07-31T00:40:34;4.03;;;2.92;;
16792;SDS011;8513;42.662;23.350;2023-07-31T00:43:01;3.08;;;2.88;;
16792;SDS011;8513;42.662;23.350;2023-07-31T00:45:28;3.60;;;3.28;;
16792;SDS011;8513;42.662;23.350;2023-07-31T00:47:54;3.40;;;3.13;;
16792;SDS011;8513;42.662;23.350;2023-07-31T00:50:19;3.65;;;3.35;;
16792;SDS011;8513;42.662;23.350;2023-07-31T00:52:45;4.25;;;3.80;;
16792;SDS011;8513;42.662;23.350;2023-07-31T00:55:10;5.15;;;4.75;;
16792;SDS011;8513;42.662;23.350;2023-07-31T00:57:36;4.07;;;3.78;;
16792;SDS011;8513;42.662;23.350;2023-07-31T01:00:03;4.68;;;4.20;;
16792;SDS011;8513;42.662;23.350;2023-07-31T01:02:29;5.00;;;4.60;;
16792;SDS011;8513;42.662;23.350;2023-07-31T01:04:54;5.70;;;5.20;;
16792;SDS011;8513;42.662;23.350;2023-07-31T01:07:22;5.10;;;4.70;;
16792;SDS011;8513;42.662;23.350;2023-07-31T01:12:28;5.65;;;5.15;;
16792;SDS011;8513;42.662;23.350;2023-07-31T01:15:03;5.82;;;5.32;;
16792;SDS011;8513;42.662;23.350;2023-07-31T01:17:30;6.00;;;5.50;;
16792;SDS011;8513;42.662;23.350;2023-07-31T01:19:55;5.95;;;5.45;;
16792;SDS011;8513;42.662;23.350;2023-07-31T01:28:36;7.78;;;7.07;;
16792;SDS011;8513;42.662;23.350;2023-07-31T01:31:03;7.55;;;6.93;;
16792;SDS011;8513;42.662;23.350;2023-07-31T01:33:36;7.75;;;7.05;;
16792;SDS011;8513;42.662;23.350;2023-07-31T01:36:02;8.52;;;7.85;;
16792;SDS011;8513;42.662;23.350;2023-07-31T01:38:28;9.88;;;8.93;;
16792;SDS011;8513;42.662;23.350;2023-07-31T01:40:54;10.32;;;9.50;;
16792;SDS011;8513;42.662;23.350;2023-07-31T01:43:19;11.20;;;10.20;;
16792;SDS011;8513;42.662;23.350;2023-07-31T01:45:45;11.73;;;10.63;;
16792;SDS011;8513;42.662;23.350;2023-07-31T01:48:10;11.80;;;10.80;;
16792;SDS011;8513;42.662;23.350;2023-07-31T01:50:36;12.35;;;11.32;;
16792;SDS011;8513;42.662;23.350;2023-07-31T01:53:01;13.30;;;12.10;;
16792;SDS011;8513;42.662;23.350;2023-07-31T01:55:27;14.45;;;13.15;;
16792;SDS011;8513;42.662;23.350;2023-07-31T01:57:52;14.43;;;13.23;;
16792;SDS011;8513;42.662;23.350;2023-07-31T02:00:18;15.73;;;14.23;;
16792;SDS011;8513;42.662;23.350;2023-07-31T02:02:43;16.35;;;14.95;;
16792;SDS011;8513;42.662;23.350;2023-07-31T02:05:09;16.35;;;14.95;;
16792;SDS011;8513;42.662;23.350;2023-07-31T02:07:34;16.23;;;14.82;;
16792;SDS011;8513;42.662;23.350;2023-07-31T02:10:00;16.95;;;15.35;;
16792;SDS011;8513;42.662;23.350;2023-07-31T02:12:25;16.77;;;15.27;;
16792;SDS011;8513;42.662;23.350;2023-07-31T02:14:50;17.38;;;15.77;;
16792;SDS011;8513;42.662;23.350;2023-07-31T02:17:16;16.95;;;15.43;;
16792;SDS011;8513;42.662;23.350;2023-07-31T02:19:41;16.95;;;15.45;;
16792;SDS011;8513;42.662;23.350;2023-07-31T02:22:07;17.88;;;16.27;;
16792;SDS011;8513;42.662;23.350;2023-07-31T02:24:32;17.65;;;16.10;;
16792;SDS011;8513;42.662;23.350;2023-07-31T02:26:57;17.40;;;15.88;;
16792;SDS011;8513;42.662;23.350;2023-07-31T02:29:23;17.38;;;15.88;;
16792;SDS011;8513;42.662;23.350;2023-07-31T02:31:48;17.83;;;16.23;;
16792;SDS011;8513;42.662;23.350;2023-07-31T02:34:13;15.88;;;14.45;;
16792;SDS011;8513;42.662;23.350;2023-07-31T02:36:39;18.30;;;16.70;;
16792;SDS011;8513;42.662;23.350;2023-07-31T02:39:04;16.80;;;15.35;;
16792;SDS011;8513;42.662;23.350;2023-07-31T02:41:30;17.63;;;16.13;;
16792;SDS011;8513;42.662;23.350;2023-07-31T02:43:55;18.15;;;16.55;;
16792;SDS011;8513;42.662;23.350;2023-07-31T02:46:21;17.58;;;16.05;;
16792;SDS011;8513;42.662;23.350;2023-07-31T02:48:49;18.52;;;16.92;;
16792;SDS011;8513;42.662;23.350;2023-07-31T02:51:14;17.52;;;15.77;;
16792;SDS011;8513;42.662;23.350;2023-07-31T02:53:40;18.25;;;16.65;;
16792;SDS011;8513;42.662;23.350;2023-07-31T02:56:05;17.92;;;16.42;;
16792;SDS011;8513;42.662;23.350;2023-07-31T02:58:31;16.60;;;15.13;;
16792;SDS011;8513;42.662;23.350;2023-07-31T03:00:57;18.38;;;16.58;;
16792;SDS011;8513;42.662;23.350;2023-07-31T03:03:23;17.13;;;15.63;;
16792;SDS011;8513;42.662;23.350;2023-07-31T03:05:49;17.38;;;15.88;;
16792;SDS011;8513;42.662;23.350;2023-07-31T03:08:14;17.08;;;15.50;;
16792;SDS011;8513;42.662;23.350;2023-07-31T03:10:40;17.63;;;16.00;;
16792;SDS011;8513;42.662;23.350;2023-07-31T03:13:06;17.55;;;16.02;;
16792;SDS011;8513;42.662;23.350;2023-07-31T03:15:31;17.88;;;16.27;;
16792;SDS011;8513;42.662;23.350;2023-07-31T03:17:57;17.85;;;16.35;;
16792;SDS011;8513;42.662;23.350;2023-07-31T03:20:22;19.13;;;17.30;;
16792;SDS011;8513;42.662;23.350;2023-07-31T03:22:47;18.30;;;16.60;;
16792;SDS011;8513;42.662;23.350;2023-07-31T03:25:13;18.20;;;16.35;;
16792;SDS011;8513;42.662;23.350;2023-07-31T03:27:39;18.00;;;16.40;;
16792;SDS011;8513;42.662;23.350;2023-07-31T03:30:05;17.98;;;16.23;;
16792;SDS011;8513;42.662;23.350;2023-07-31T03:32:31;18.45;;;16.75;;
16792;SDS011;8513;42.662;23.350;2023-07-31T03:34:57;18.98;;;17.17;;
16792;SDS011;8513;42.662;23.350;2023-07-31T03:37:22;18.63;;;17.02;;
16792;SDS011;8513;42.662;23.350;2023-07-31T03:39:48;17.63;;;15.82;;
16792;SDS011;8513;42.662;23.350;2023-07-31T03:42:13;18.50;;;16.90;;
16792;SDS011;8513;42.662;23.350;2023-07-31T03:44:39;18.80;;;17.20;;
16792;SDS011;8513;42.662;23.350;2023-07-31T03:47:05;19.63;;;17.92;;
16792;SDS011;8513;42.662;23.350;2023-07-31T03:49:30;18.50;;;16.77;;
16792;SDS011;8513;42.662;23.350;2023-07-31T03:51:56;19.52;;;17.73;;
16792;SDS011;8513;42.662;23.350;2023-07-31T03:54:21;18.45;;;16.75;;
16792;SDS011;8513;42.662;23.350;2023-07-31T03:56:46;18.05;;;16.40;;
16792;SDS011;8513;42.662;23.350;2023-07-31T03:59:12;19.58;;;17.58;;
16792;SDS011;8513;42.662;23.350;2023-07-31T04:01:37;19.02;;;17.27;;
16792;SDS011;8513;42.662;23.350;2023-07-31T04:04:02;20.48;;;18.33;;
16792;SDS011;8513;42.662;23.350;2023-07-31T04:06:28;20.38;;;18.38;;
16792;SDS011;8513;42.662;23.350;2023-07-31T04:08:53;19.73;;;17.90;;
16792;SDS011;8513;42.662;23.350;2023-07-31T04:11:19;20.33;;;18.42;;
16792;SDS011;8513;42.662;23.350;2023-07-31T04:13:44;20.70;;;18.75;;
16792;SDS011;8513;42.662;23.350;2023-07-31T04:16:10;20.85;;;18.85;;
16792;SDS011;8513;42.662;23.350;2023-07-31T04:18:35;19.92;;;17.92;;
16792;SDS011;8513;42.662;23.350;2023-07-31T04:21:00;18.60;;;16.90;;
16792;SDS011;8513;42.662;23.350;2023-07-31T04:23:27;20.40;;;18.50;;
16792;SDS011;8513;42.662;23.350;2023-07-31T04:25:53;19.92;;;18.08;;
16792;SDS011;8513;42.662;23.350;2023-07-31T04:28:18;18.70;;;16.95;;
16792;SDS011;8513;42.662;23.350;2023-07-31T04:30:43;20.08;;;18.17;;
16792;SDS011;8513;42.662;23.350;2023-07-31T04:33:09;19.75;;;17.90;;
16792;SDS011;8513;42.662;23.350;2023-07-31T04:35:34;20.02;;;18.02;;
16792;SDS011;8513;42.662;23.350;2023-07-31T04:38:00;19.00;;;17.20;;
16792;SDS011;8513;42.662;23.350;2023-07-31T04:40:25;21.00;;;18.90;;
16792;SDS011;8513;42.662;23.350;2023-07-31T04:42:51;18.63;;;16.80;;
16792;SDS011;8513;42.662;23.350;2023-07-31T04:45:17;18.30;;;16.60;;
16792;SDS011;8513;42.662;23.350;2023-07-31T04:47:42;18.92;;;17.15;;
16792;SDS011;8513;42.662;23.350;2023-07-31T04:50:08;18.50;;;16.80;;
16792;SDS011;8513;42.662;23.350;2023-07-31T04:52:33;20.17;;;18.27;;
16792;SDS011;8513;42.662;23.350;2023-07-31T04:54:59;17.92;;;16.23;;
16792;SDS011;8513;42.662;23.350;2023-07-31T04:57:24;18.15;;;16.48;;
16792;SDS011;8513;42.662;23.350;2023-07-31T04:59:49;18.63;;;16.85;;
16792;SDS011;8513;42.662;23.350;2023-07-31T05:02:15;19.00;;;17.10;;
16792;SDS011;8513;42.662;23.350;2023-07-31T05:04:40;18.85;;;17.15;;
16792;SDS011;8513;42.662;23.350;2023-07-31T05:07:06;18.55;;;16.83;;
16792;SDS011;8513;42.662;23.350;2023-07-31T05:09:31;17.83;;;16.17;;
16792;SDS011;8513;42.662;23.350;2023-07-31T05:11:57;17.10;;;15.40;;
16792;SDS011;8513;42.662;23.350;2023-07-31T05:14:22;17.65;;;15.98;;
16792;SDS011;8513;42.662;23.350;2023-07-31T05:16:48;18.75;;;16.85;;
16792;SDS011;8513;42.662;23.350;2023-07-31T05:19:13;17.25;;;15.65;;
16792;SDS011;8513;42.662;23.350;2023-07-31T05:21:39;17.08;;;15.38;;
16792;SDS011;8513;42.662;23.350;2023-07-31T05:24:05;16.35;;;14.85;;
16792;SDS011;8513;42.662;23.350;2023-07-31T05:26:30;15.50;;;14.10;;
16792;SDS011;8513;42.662;23.350;2023-07-31T05:28:55;15.75;;;14.30;;
16792;SDS011;8513;42.662;23.350;2023-07-31T05:31:21;15.02;;;13.63;;
16792;SDS011;8513;42.662;23.350;2023-07-31T05:33:47;15.40;;;14.10;;
16792;SDS011;8513;42.662;23.350;2023-07-31T05:36:15;15.52;;;14.13;;
16792;SDS011;8513;42.662;23.350;2023-07-31T05:38:41;14.60;;;13.40;;
16792;SDS011;8513;42.662;23.350;2023-07-31T05:41:07;13.63;;;12.43;;
16792;SDS011;8513;42.662;23.350;2023-07-31T05:43:32;13.15;;;11.85;;
16792;SDS011;8513;42.662;23.350;2023-07-31T05:45:58;11.88;;;10.88;;
16792;SDS011;8513;42.662;23.350;2023-07-31T05:48:23;11.18;;;10.25;;
16792;SDS011;8513;42.662;23.350;2023-07-31T05:50:49;11.10;;;10.20;;
16792;SDS011;8513;42.662;23.350;2023-07-31T05:53:14;10.85;;;9.95;;
16792;SDS011;8513;42.662;23.350;2023-07-31T05:55:39;9.98;;;9.10;;
16792;SDS011;8513;42.662;23.350;2023-07-31T05:58:05;8.95;;;8.20;;
16792;SDS011;8513;42.662;23.350;2023-07-31T06:00:30;9.63;;;8.73;;
16792;SDS011;8513;42.662;23.350;2023-07-31T06:02:57;9.48;;;8.55;;
16792;SDS011;8513;42.662;23.350;2023-07-31T06:05:22;9.57;;;8.77;;
16792;SDS011;8513;42.662;23.350;2023-07-31T06:07:48;9.15;;;7.97;;
16792;SDS011;8513;42.662;23.350;2023-07-31T06:10:13;8.15;;;7.55;;
16792;SDS011;8513;42.662;23.350;2023-07-31T06:12:39;8.35;;;7.55;;
16792;SDS011;8513;42.662;23.350;2023-07-31T06:15:04;9.60;;;7.03;;
16792;SDS011;8513;42.662;23.350;2023-07-31T06:17:30;7.72;;;6.47;;
16792;SDS011;8513;42.662;23.350;2023-07-31T06:19:56;5.75;;;5.30;;
16792;SDS011;8513;42.662;23.350;2023-07-31T06:22:22;5.22;;;4.70;;
16792;SDS011;8513;42.662;23.350;2023-07-31T06:24:47;4.88;;;4.45;;
16792;SDS011;8513;42.662;23.350;2023-07-31T06:27:13;4.28;;;3.88;;
16792;SDS011;8513;42.662;23.350;2023-07-31T06:29:38;5.95;;;4.55;;
16792;SDS011;8513;42.662;23.350;2023-07-31T06:32:04;4.20;;;3.90;;
16792;SDS011;8513;42.662;23.350;2023-07-31T06:34:29;4.93;;;4.18;;
16792;SDS011;8513;42.662;23.350;2023-07-31T06:36:55;4.63;;;4.20;;
16792;SDS011;8513;42.662;23.350;2023-07-31T06:39:21;5.82;;;4.57;;
16792;SDS011;8513;42.662;23.350;2023-07-31T06:41:47;8.35;;;4.13;;
16792;SDS011;8513;42.662;23.350;2023-07-31T06:44:12;4.88;;;4.47;;
16792;SDS011;8513;42.662;23.350;2023-07-31T06:46:38;4.88;;;4.38;;
16792;SDS011;8513;42.662;23.350;2023-07-31T06:49:03;4.75;;;4.35;;
16792;SDS011;8513;42.662;23.350;2023-07-31T06:51:29;7.18;;;4.40;;
16792;SDS011;8513;42.662;23.350;2023-07-31T06:53:56;5.88;;;3.97;;
16792;SDS011;8513;42.662;23.350;2023-07-31T06:56:22;4.00;;;3.65;;
16792;SDS011;8513;42.662;23.350;2023-07-31T06:58:48;4.30;;;3.92;;
16792;SDS011;8513;42.662;23.350;2023-07-31T07:01:13;11.07;;;4.70;;
16792;SDS011;8513;42.662;23.350;2023-07-31T07:03:38;4.03;;;3.63;;
16792;SDS011;8513;42.662;23.350;2023-07-31T07:06:04;7.40;;;4.25;;
16792;SDS011;8513;42.662;23.350;2023-07-31T07:08:29;4.20;;;3.78;;
16792;SDS011;8513;42.662;23.350;2023-07-31T07:10:55;3.47;;;3.17;;
16792;SDS011;8513;42.662;23.350;2023-07-31T07:13:21;5.57;;;3.40;;
16792;SDS011;8513;42.662;23.350;2023-07-31T07:15:50;4.60;;;3.05;;
16792;SDS011;8513;42.662;23.350;2023-07-31T07:18:16;3.70;;;3.35;;
16792;SDS011;8513;42.662;23.350;2023-07-31T07:20:51;5.78;;;3.70;;
16792;SDS011;8513;42.662;23.350;2023-07-31T07:23:18;3.53;;;3.03;;
16792;SDS011;8513;42.662;23.350;2023-07-31T07:25:45;3.63;;;3.28;;
16792;SDS011;8513;42.662;23.350;2023-07-31T07:28:11;3.55;;;3.22;;
16792;SDS011;8513;42.662;23.350;2023-07-31T07:30:37;3.85;;;3.22;;
16792;SDS011;8513;42.662;23.350;2023-07-31T07:33:03;3.40;;;3.10;;
16792;SDS011;8513;42.662;23.350;2023-07-31T07:35:28;3.78;;;3.20;;
16792;SDS011;8513;42.662;23.350;2023-07-31T07:37:54;3.60;;;3.22;;
16792;SDS011;8513;42.662;23.350;2023-07-31T07:40:20;5.28;;;3.33;;
16792;SDS011;8513;42.662;23.350;2023-07-31T08:24:21;3.47;;;3.17;;
16792;SDS011;8513;42.662;23.350;2023-07-31T08:26:46;3.72;;;3.38;;
16792;SDS011;8513;42.662;23.350;2023-07-31T08:29:12;3.28;;;2.97;;
16792;SDS011;8513;42.662;23.350;2023-07-31T08:31:37;8.70;;;3.42;;
16792;SDS011;8513;42.662;23.350;2023-07-31T08:34:03;3.05;;;2.80;;
16792;SDS011;8513;42.662;23.350;2023-07-31T08:36:28;3.85;;;3.30;;
16792;SDS011;8513;42.662;23.350;2023-07-31T08:38:53;3.90;;;3.00;;
16792;SDS011;8513;42.662;23.350;2023-07-31T08:41:19;2.88;;;2.65;;
16792;SDS011;8513;42.662;23.350;2023-07-31T08:43:49;4.88;;;2.90;;
16792;SDS011;8513;42.662;23.350;2023-07-31T08:46:15;3.25;;;2.95;;
16792;SDS011;8513;42.662;23.350;2023-07-31T08:56:26;2.80;;;2.60;;
16792;SDS011;8513;42.662;23.350;2023-07-31T08:59:00;2.90;;;2.70;;
16792;SDS011;8513;42.662;23.350;2023-07-31T09:06:55;4.50;;;3.33;;
16792;SDS011;8513;42.662;23.350;2023-07-31T09:09:32;3.42;;;3.10;;
16792;SDS011;8513;42.662;23.350;2023-07-31T09:11:58;3.97;;;3.30;;
16792;SDS011;8513;42.662;23.350;2023-07-31T09:14:42;3.03;;;2.80;;
16792;SDS011;8513;42.662;23.350;2023-07-31T09:35:21;2.88;;;2.67;;
16792;SDS011;8513;42.662;23.350;2023-07-31T09:40:35;2.83;;;2.63;;
16792;SDS011;8513;42.662;23.350;2023-07-31T11:35:43;1.88;;;1.77;;
16792;SDS011;8513;42.662;23.350;2023-07-31T11:38:26;2.42;;;1.88;;
16792;SDS011;8513;42.662;23.350;2023-07-31T11:40:58;2.05;;;1.80;;
16792;SDS011;8513;42.662;23.350;2023-07-31T11:43:26;2.10;;;1.90;;
16792;SDS011;8513;42.662;23.350;2023-07-31T11:45:53;2.38;;;1.75;;
16792;SDS011;8513;42.662;23.350;2023-07-31T11:48:30;2.80;;;2.20;;
16792;SDS011;8513;42.662;23.350;2023-07-31T11:51:02;1.90;;;1.80;;
16792;SDS011;8513;42.662;23.350;2023-07-31T11:53:49;2.28;;;2.17;;
16792;SDS011;8513;42.662;23.350;2023-07-31T11:56:26;2.83;;;2.20;;
16792;SDS011;8513;42.662;23.350;2023-07-31T12:04:29;2.90;;;2.55;;
16792;SDS011;8513;42.662;23.350;2023-07-31T12:35:16;7.18;;;4.50;;
16792;SDS011;8513;42.662;23.350;2023-07-31T13:08:59;4.63;;;4.30;;
16792;SDS011;8513;42.662;23.350;2023-07-31T13:11:26;4.40;;;4.10;;
16792;SDS011;8513;42.662;23.350;2023-07-31T13:13:54;7.00;;;4.57;;
16792;SDS011;8513;42.662;23.350;2023-07-31T13:16:20;5.47;;;4.85;;
16792;SDS011;8513;42.662;23.350;2023-07-31T13:18:49;4.90;;;4.60;;
16792;SDS011;8513;42.662;23.350;2023-07-31T13:29:12;4.60;;;4.20;;
16792;SDS011;8513;42.662;23.350;2023-07-31T13:31:38;6.57;;;5.95;;
16792;SDS011;8513;42.662;23.350;2023-07-31T13:34:03;39.03;;;35.47;;
